Terminal Aerodrome Forecast
Issued by NWS Twin Cities, MN

Home | Current Version | Previous Version | Text Only | Print | Product List | Glossary On
Versions: 1 2 3 4 5 6 7 8 9 10 11 12 13 14 15 16 17 18 19 20 21 22
000
FTUS43 KMPX 171741
TAFSTC
TAF
KSTC 171741Z 1718/1818 33015G22KT P6SM BKN020
     FM172300 32011KT P6SM SCT030
     FM180200 29004KT P6SM SKC
     FM181100 25004KT P6SM BKN120=

USA.gov is the U.S. government's official web portal to all federal, state and local government web resources and services.